Galax, VA

4:41 PM EST on January 26, 2015 (GMT -0500)
Taylorwoods Station | Change Station
CLOSE
Current Station
Personal Weather Station
Location: Galax, VA
Elevation: 2585 ft
Nearby Weather Stations

Elev 2585 ft 36.68 °N, 80.89 °W | Updated 3 seconds ago

Overcast
Overcast
34.7 °F
Feels Like 35 °F
N
3.0
Wind Variable Wind from WNW
Gusts 9.0 mph

Today
High -- | Low -- °F
--% Chance of Precip.
Yesterday
High -- | Low -- °F
Precip. -- in
7:30 AM 5:42 PM
Waxing Crescent, 47% visible
Pressure 29.62 in
Visibility 5.0 miles
Clouds Overcast 1300 ft
Windchill 35 °F
Dew Point 30 °F
Humidity 81%
Rainfall 0.09 in
Snow Depth Not available.
UV 0.0 out of 12
Pollen .40 out of 12
Air Quality Not available.
Flu Activity Not available.
METAR KHLX 262115Z AUTO 30016G21KT 5SM -SN OVC013 01/M01 A2962 RMK AO2 T00051014

More Conditions Fewer Conditions

Pressure 29.62 in
Visibility 5.0 miles
Clouds Overcast 1300 ft
Windchill 35 °F
Dew Point 30 °F
Humidity 81%
Rainfall 0.09 in
Snow Depth Not available.
UV 0.0 out of 12
Pollen .40 out of 12
Air Quality Not available.
Flu Activity Not available.
METAR KHLX 262115Z AUTO 30016G21KT 5SM -SN OVC013 01/M01 A2962 RMK AO2 T00051014

More Conditions Fewer Conditions

10-Day Weather Forecast

Almanac

Astronomy

Jan. 26, 2015 Rise Set
Actual Time
Civil Twilight
Nautical Twilight
Astronomical Twilight
Moon
Length of Visible Light
Length of Day
Tomorrow will be .
, % of the Moon is Illuminated

Today's Extremes

State Highs State Lows

Community

WunderPhotos

Upload Photos

1,790,370 photos uploaded!

WunderBlogs® & News

Nearby

Air Quality

  Air Quality AQ Index Pollutant
Not available.

Snow Depth

Station Depth Elevation

Earthquake Activity

City Distance Mag. Time & Date
Minimum magnitude displayed is 2.5.

Coastal Water Temperatures

Place Temperature

Nearby Weather Stations